Time;durP1;ratioP1;P1;durP2;ratioP2;P2;SDS_P1;SDS_P2;PMS_P1;PMS_P2;Temp;Humidity;BMP_temperature;BMP_pressure;BME280_temperature;BME280_humidity;BME280_pressure;Samples;Min_cycle;Max_cycle;Signal;HPM_P1;HPM_P2
2021/03/18 00:02:05;;;;;;;7.93;2.63;;;1.90;99.90;;;;;;5012118;28;20022;-67
2021/03/18 00:04:31;;;;;;;5.57;2.35;;;1.90;99.90;;;;;;5012083;28;20034;-66
2021/03/18 00:06:57;;;;;;;8.02;2.00;;;1.90;99.90;;;;;;5012265;28;20036;-66
2021/03/18 00:09:23;;;;;;;8.73;2.30;;;2.00;99.90;;;;;;5012074;28;20029;-66
2021/03/18 00:11:52;;;;;;;7.65;2.50;;;2.10;99.90;;;;;;5011003;28;20497;-66
2021/03/18 00:14:23;;;;;;;5.85;2.35;;;2.20;99.90;;;;;;5011892;28;20394;-66
2021/03/18 00:16:48;;;;;;;12.07;2.87;;;2.20;99.90;;;;;;5012009;28;20030;-66
2021/03/18 00:19:15;;;;;;;15.88;3.72;;;2.20;99.90;;;;;;5010661;28;20041;-66
2021/03/18 00:21:41;;;;;;;6.60;2.63;;;2.20;99.90;;;;;;5011727;28;20475;-66
2021/03/18 00:24:08;;;;;;;6.15;2.72;;;2.20;99.90;;;;;;5011849;28;20041;-67
2021/03/18 00:26:35;;;;;;;5.40;3.47;;;2.30;99.90;;;;;;5011977;28;20030;-67
2021/03/18 00:29:02;;;;;;;6.28;3.28;;;2.30;99.90;;;;;;5012194;28;20053;-67
2021/03/18 00:31:32;;;;;;;7.43;3.75;;;2.30;99.90;;;;;;5014643;28;20040;-67
2021/03/18 00:33:58;;;;;;;8.88;3.50;;;2.20;99.90;;;;;;5015564;28;20068;-67
2021/03/18 00:36:26;;;;;;;11.52;3.28;;;2.20;99.90;;;;;;5014964;28;20061;-67
2021/03/18 00:38:52;;;;;;;8.80;2.92;;;2.20;99.90;;;;;;5015196;28;20478;-67
2021/03/18 00:41:19;;;;;;;8.15;2.75;;;2.20;99.90;;;;;;5015395;28;20471;-67
2021/03/18 00:43:45;;;;;;;11.38;3.50;;;2.20;99.90;;;;;;5014234;28;20061;-67
2021/03/18 00:46:11;;;;;;;8.00;3.13;;;2.00;99.90;;;;;;5015258;28;20049;-66
2021/03/18 00:48:38;;;;;;;7.00;3.50;;;2.00;99.90;;;;;;5015155;28;20538;-66
2021/03/18 00:51:15;;;;;;;7.53;3.10;;;1.90;99.90;;;;;;5015013;28;20169;-66
2021/03/18 00:53:44;;;;;;;9.10;3.40;;;1.90;99.90;;;;;;5015350;28;20038;-66
2021/03/18 00:56:17;;;;;;;5.43;2.88;;;1.90;99.90;;;;;;5014640;28;20036;-66
2021/03/18 00:58:45;;;;;;;8.15;3.40;;;1.80;99.90;;;;;;5015203;28;20490;-66
2021/03/18 01:01:14;;;;;;;8.20;2.92;;;1.70;99.90;;;;;;5014968;28;20080;-66
2021/03/18 01:03:41;;;;;;;9.80;3.35;;;1.60;99.90;;;;;;5015155;28;20033;-66
2021/03/18 01:06:10;;;;;;;8.55;4.07;;;1.40;99.90;;;;;;5014723;28;20137;-66
2021/03/18 01:08:38;;;;;;;10.00;3.20;;;1.30;99.90;;;;;;5015065;28;20522;-66
2021/03/18 01:11:15;;;;;;;7.45;2.88;;;1.20;99.90;;;;;;5014924;28;20030;-66
2021/03/18 01:13:46;;;;;;;4.88;3.05;;;1.20;99.90;;;;;;5014965;28;20029;-67
2021/03/18 01:16:21;;;;;;;5.35;3.30;;;1.30;99.90;;;;;;5014505;28;20033;-66
2021/03/18 01:19:04;;;;;;;8.77;3.05;;;1.40;99.90;;;;;;5013591;28;20467;-66
2021/03/18 01:21:40;;;;;;;10.93;2.92;;;1.40;99.90;;;;;;5013123;28;20395;-66
2021/03/18 01:24:06;;;;;;;8.30;3.08;;;1.40;99.90;;;;;;5014773;28;20030;-66
2021/03/18 01:26:32;;;;;;;8.48;2.95;;;1.50;99.90;;;;;;5014104;28;20030;-66
2021/03/18 01:28:59;;;;;;;6.00;2.67;;;1.50;99.90;;;;;;5014394;28;20034;-67
2021/03/18 01:31:25;;;;;;;5.50;2.92;;;1.50;99.90;;;;;;5014344;28;20026;-66
2021/03/18 01:33:51;;;;;;;5.28;2.90;;;1.60;99.90;;;;;;5014352;28;20030;-66
2021/03/18 01:36:17;;;;;;;8.68;3.72;;;1.60;99.90;;;;;;5013879;28;20049;-66
2021/03/18 01:38:45;;;;;;;9.85;2.53;;;1.60;99.90;;;;;;5014002;28;20034;-67
2021/03/18 01:41:12;;;;;;;10.07;3.20;;;1.60;99.90;;;;;;5013895;28;20487;-66
2021/03/18 01:43:39;;;;;;;13.38;3.72;;;1.60;99.90;;;;;;5013581;28;20502;-66
2021/03/18 01:46:06;;;;;;;4.97;2.85;;;1.60;99.90;;;;;;5013919;28;20030;-66
2021/03/18 01:48:32;;;;;;;7.30;3.10;;;1.70;99.90;;;;;;5014071;28;20079;-66
2021/03/18 01:51:00;;;;;;;8.27;2.97;;;1.70;99.90;;;;;;5013885;28;20034;-66
2021/03/18 01:53:27;;;;;;;7.68;2.83;;;1.70;99.90;;;;;;5013945;28;20045;-66
2021/03/18 01:55:56;;;;;;;7.63;2.97;;;1.70;99.90;;;;;;5014072;28;20061;-66
2021/03/18 01:58:22;;;;;;;5.82;3.15;;;1.70;99.90;;;;;;5013461;28;20026;-66
2021/03/18 02:00:56;;;;;;;5.85;2.88;;;1.70;99.90;;;;;;5013838;28;20053;-67
2021/03/18 02:03:23;;;;;;;8.32;2.92;;;1.70;99.90;;;;;;5013798;28;20499;-66
2021/03/18 02:05:50;;;;;;;9.77;2.72;;;1.70;99.90;;;;;;5013627;28;20041;-66
2021/03/18 02:08:16;;;;;;;6.97;3.25;;;1.60;99.90;;;;;;5013616;28;20034;-66
2021/03/18 02:10:42;;;;;;;12.57;2.88;;;1.70;99.90;;;;;;5013930;28;20030;-66
2021/03/18 02:13:11;;;;;;;10.82;3.33;;;1.60;99.90;;;;;;5012488;28;20029;-67
2021/03/18 02:16:01;;;;;;;6.43;2.88;;;1.60;99.90;;;;;;5013655;28;20107;-66
2021/03/18 02:19:09;;;;;;;8.05;2.95;;;1.60;99.90;;;;;;5012316;28;20486;-67
2021/03/18 02:21:37;;;;;;;8.85;3.25;;;1.60;99.90;;;;;;5013205;28;20470;-66
2021/03/18 02:24:49;;;;;;;6.00;3.10;;;1.50;99.90;;;;;;5013660;28;20056;-66
2021/03/18 02:27:48;;;;;;;;;;;1.60;99.90;;;;;;5012745;28;20049;-66
2021/03/18 02:30:40;;;;;;;13.77;3.40;;;1.50;99.90;;;;;;5013456;28;20354;-67
2021/03/18 02:33:18;;;;;;;6.93;3.40;;;1.50;99.90;;;;;;5013633;28;20388;-66
2021/03/18 02:35:50;;;;;;;11.77;3.58;;;1.50;99.90;;;;;;5012846;28;20384;-67
2021/03/18 02:38:30;;;;;;;4.88;2.75;;;1.50;99.90;;;;;;5011981;28;20033;-67
2021/03/18 02:41:17;;;;;;;8.35;3.45;;;1.50;99.90;;;;;;5012210;28;20026;-67
2021/03/18 02:44:20;;;;;;;6.85;2.88;;;1.60;99.90;;;;;;5011781;28;20116;-67
2021/03/18 02:46:53;;;;;;;10.13;3.30;;;1.60;99.90;;;;;;5002059;28;20052;-67
2021/03/18 02:49:20;;;;;;;6.70;3.30;;;1.60;99.90;;;;;;5011953;28;20170;-67
2021/03/18 02:51:48;;;;;;;7.80;2.70;;;1.70;99.90;;;;;;5011958;28;20037;-67
2021/03/18 02:54:19;;;;;;;8.95;3.45;;;1.70;99.90;;;;;;5010697;28;20033;-67
2021/03/18 02:56:50;;;;;;;8.45;3.10;;;1.70;99.90;;;;;;5011975;28;20068;-67
2021/03/18 02:59:23;;;;;;;;;;;1.80;99.90;;;;;;5012076;28;20087;-67
2021/03/18 03:01:49;;;;;;;5.45;2.83;;;1.80;99.90;;;;;;4995608;28;20462;-67
2021/03/18 03:04:16;;;;;;;9.07;3.28;;;1.80;99.90;;;;;;5012829;28;20096;-67
2021/03/18 03:06:43;;;;;;;8.43;3.10;;;1.80;99.90;;;;;;5012716;28;20479;-67
2021/03/18 03:09:09;;;;;;;7.00;2.97;;;1.70;99.90;;;;;;5012869;28;20029;-66
2021/03/18 03:11:38;;;;;;;9.80;3.50;;;1.80;99.90;;;;;;5012757;28;20038;-67
2021/03/18 03:14:08;;;;;;;6.80;3.30;;;1.80;99.90;;;;;;5012529;28;20399;-67
2021/03/18 03:16:35;;;;;;;7.47;2.88;;;1.80;99.90;;;;;;5011452;28;20113;-67
2021/03/18 03:19:03;;;;;;;10.70;2.80;;;1.80;99.90;;;;;;4994929;28;20516;-67
2021/03/18 03:21:30;;;;;;;6.75;3.45;;;1.70;99.90;;;;;;5012551;28;20056;-67
2021/03/18 03:23:59;;;;;;;8.63;3.47;;;1.70;99.90;;;;;;5011556;28;20113;-67
2021/03/18 03:26:26;;;;;;;9.80;3.85;;;1.70;99.90;;;;;;5012501;28;20033;-67
2021/03/18 03:28:54;;;;;;;7.75;3.15;;;1.80;99.90;;;;;;5011419;28;20045;-67
2021/03/18 03:31:20;;;;;;;12.48;2.80;;;1.80;99.90;;;;;;5011186;28;20030;-67
2021/03/18 03:33:46;;;;;;;8.48;2.70;;;1.80;99.90;;;;;;5012414;28;20049;-67
2021/03/18 03:36:13;;;;;;;15.60;4.03;;;1.70;99.90;;;;;;5012244;28;20042;-67
2021/03/18 03:38:39;;;;;;;6.90;3.10;;;1.80;99.90;;;;;;5011937;28;20059;-67
2021/03/18 03:41:06;;;;;;;5.00;2.85;;;1.80;99.90;;;;;;5012542;28;20026;-67
2021/03/18 03:43:33;;;;;;;18.13;3.50;;;1.80;99.90;;;;;;5012370;28;20418;-67
2021/03/18 03:45:59;;;;;;;7.55;3.08;;;1.80;99.90;;;;;;5012190;28;20486;-67
2021/03/18 03:48:30;;;;;;;7.32;3.13;;;1.80;99.90;;;;;;5012306;28;20137;-67
2021/03/18 03:50:57;;;;;;;6.88;3.05;;;1.80;99.90;;;;;;5012246;28;20402;-67
2021/03/18 03:53:45;;;;;;;7.40;3.60;;;1.80;99.90;;;;;;5011131;28;20042;-67
2021/03/18 03:56:46;;;;;;;9.27;3.40;;;1.80;99.90;;;;;;5012328;28;20040;-67
2021/03/18 03:59:20;;;;;;;7.63;2.35;;;1.70;99.90;;;;;;5005258;28;20042;-67
2021/03/18 04:01:51;;;;;;;6.85;3.13;;;1.70;99.90;;;;;;5011256;28;20034;-68
2021/03/18 04:04:23;;;;;;;7.43;2.72;;;1.60;99.90;;;;;;5010796;28;20370;-67
2021/03/18 04:06:54;;;;;;;8.45;4.10;;;1.50;99.90;;;;;;5015862;28;20113;-67
2021/03/18 04:09:22;;;;;;;8.25;3.88;;;1.30;99.90;;;;;;5014887;28;20084;-68
2021/03/18 04:11:50;;;;;;;17.38;3.55;;;1.20;99.90;;;;;;5014930;28;20041;-67
2021/03/18 04:14:22;;;;;;;13.10;3.90;;;1.10;99.90;;;;;;5014740;28;20057;-67
2021/03/18 04:16:50;;;;;;;11.55;3.53;;;1.10;99.90;;;;;;5014891;28;20037;-67
2021/03/18 04:19:21;;;;;;;9.30;3.05;;;1.00;99.90;;;;;;5014718;28;20096;-66
2021/03/18 04:21:51;;;;;;;10.77;3.97;;;0.90;99.90;;;;;;5014828;28;20618;-67
2021/03/18 04:24:18;;;;;;;5.82;3.33;;;0.80;99.90;;;;;;5014680;28;20661;-67
2021/03/18 04:26:46;;;;;;;15.02;3.95;;;0.80;99.90;;;;;;5014501;28;20058;-66
2021/03/18 04:29:14;;;;;;;9.48;3.95;;;0.80;99.90;;;;;;5014220;28;20548;-66
2021/03/18 04:31:42;;;;;;;7.68;3.40;;;0.70;99.90;;;;;;5014319;28;20030;-66
2021/03/18 04:34:11;;;;;;;9.32;3.65;;;0.60;99.90;;;;;;5014461;28;20034;-66
2021/03/18 04:36:38;;;;;;;8.07;3.60;;;0.50;99.90;;;;;;5014937;28;20049;-66
2021/03/18 04:39:06;;;;;;;15.95;3.67;;;0.50;99.90;;;;;;5015515;28;20057;-66
2021/03/18 04:41:33;;;;;;;10.32;4.15;;;0.50;99.90;;;;;;5012995;28;20387;-66
2021/03/18 04:44:01;;;;;;;5.97;3.10;;;0.40;99.90;;;;;;5010077;28;20042;-66
2021/03/18 04:46:28;;;;;;;7.50;3.83;;;0.40;99.90;;;;;;5014433;28;20038;-66
2021/03/18 04:48:58;;;;;;;10.13;4.65;;;0.40;99.90;;;;;;5006913;28;20057;-70
2021/03/18 04:51:25;;;;;;;7.38;3.10;;;0.40;99.90;;;;;;4997631;28;20391;-68
2021/03/18 04:53:51;;;;;;;10.57;4.00;;;0.40;99.90;;;;;;4997603;28;20026;-67
2021/03/18 04:56:20;;;;;;;10.55;3.42;;;0.30;99.90;;;;;;4999367;28;20546;-67
2021/03/18 04:58:47;;;;;;;7.20;3.13;;;0.30;99.90;;;;;;5005051;28;20368;-67
2021/03/18 05:01:16;;;;;;;10.00;4.15;;;0.30;99.90;;;;;;5005211;28;20063;-67
2021/03/18 05:03:45;;;;;;;10.23;3.97;;;0.30;99.90;;;;;;5007181;28;20124;-66
2021/03/18 05:06:13;;;;;;;7.93;3.92;;;0.20;99.90;;;;;;5009611;28;20516;-66
2021/03/18 05:08:40;;;;;;;11.55;5.55;;;0.20;99.90;;;;;;4996663;28;20030;-66
2021/03/18 05:11:07;;;;;;;18.88;4.07;;;0.30;99.90;;;;;;4999328;28;20042;-65
2021/03/18 05:13:34;;;;;;;14.70;3.78;;;0.30;99.90;;;;;;5004523;28;20534;-65
2021/03/18 05:16:03;;;;;;;10.75;3.10;;;0.30;99.90;;;;;;5014679;28;20052;-65
2021/03/18 05:18:31;;;;;;;8.70;3.58;;;0.40;99.90;;;;;;5013395;28;20581;-65
2021/03/18 05:21:00;;;;;;;9.52;3.50;;;0.40;99.90;;;;;;5014612;28;20030;-64
2021/03/18 05:23:26;;;;;;;11.07;3.97;;;0.50;99.90;;;;;;4997281;28;20394;-65
2021/03/18 05:25:52;;;;;;;10.38;4.00;;;0.40;99.90;;;;;;5014178;28;20540;-65
2021/03/18 05:28:18;;;;;;;12.15;3.28;;;0.40;99.90;;;;;;5014629;28;20065;-65
2021/03/18 05:30:45;;;;;;;6.68;3.58;;;0.40;99.90;;;;;;5014092;28;20050;-65
2021/03/18 05:33:10;;;;;;;8.98;3.47;;;0.50;99.90;;;;;;5014072;28;20515;-65
2021/03/18 05:35:40;;;;;;;8.63;4.07;;;0.50;99.90;;;;;;5013810;28;20053;-64
2021/03/18 05:38:09;;;;;;;8.75;3.08;;;0.50;99.90;;;;;;5014259;28;20034;-64
2021/03/18 05:40:36;;;;;;;9.50;3.65;;;0.50;99.90;;;;;;5013807;28;20379;-63
2021/03/18 05:43:04;;;;;;;9.80;4.10;;;0.60;99.90;;;;;;5014280;28;20026;-64
2021/03/18 05:45:30;;;;;;;6.28;3.13;;;0.70;99.90;;;;;;4995962;28;20049;-64
2021/03/18 05:47:58;;;;;;;9.93;3.15;;;0.60;99.90;;;;;;5011877;28;20497;-63
2021/03/18 05:50:24;;;;;;;11.00;3.67;;;0.70;99.90;;;;;;5029331;28;20121;-64
2021/03/18 05:52:52;;;;;;;8.13;4.65;;;0.70;99.90;;;;;;5015882;28;20033;-64
2021/03/18 05:55:23;;;;;;;10.05;3.67;;;0.70;99.90;;;;;;5033741;28;20367;-64
2021/03/18 05:57:51;;;;;;;9.57;4.18;;;0.70;99.90;;;;;;5015956;28;20087;-64
2021/03/18 06:00:18;;;;;;;6.53;3.22;;;0.70;99.90;;;;;;5033763;28;20037;-63
2021/03/18 06:02:44;;;;;;;9.35;3.20;;;0.70;99.90;;;;;;5016102;28;20029;-64
2021/03/18 06:05:14;;;;;;;16.13;4.13;;;0.70;99.90;;;;;;5033440;28;20025;-64
2021/03/18 06:07:47;;;;;;;13.50;3.78;;;0.60;99.90;;;;;;5015796;28;20044;-64
2021/03/18 06:10:19;;;;;;;10.43;3.90;;;0.60;99.90;;;;;;5033046;28;20025;-64
2021/03/18 06:12:47;;;;;;;8.00;3.72;;;0.60;99.90;;;;;;5015782;28;20033;-64
2021/03/18 06:15:14;;;;;;;10.65;4.43;;;0.50;99.90;;;;;;5033056;28;20057;-64
2021/03/18 06:17:42;;;;;;;7.93;4.07;;;0.50;99.90;;;;;;5015564;28;20033;-64
2021/03/18 06:20:14;;;;;;;8.82;4.55;;;0.40;99.90;;;;;;5018354;28;20065;-64
2021/03/18 06:22:47;;;;;;;10.55;3.83;;;0.50;99.90;;;;;;5013520;28;20030;-64
2021/03/18 06:25:31;;;;;;;11.05;4.07;;;0.50;99.90;;;;;;5013466;28;20037;-64
2021/03/18 06:28:21;;;;;;;9.55;3.70;;;0.50;99.90;;;;;;4995962;28;20167;-64
2021/03/18 06:31:09;;;;;;;13.13;3.88;;;0.50;99.90;;;;;;5013004;28;20176;-65
2021/03/18 06:33:43;;;;;;;11.88;3.80;;;0.50;99.90;;;;;;5012701;28;20483;-64
2021/03/18 06:36:32;;;;;;;11.82;4.82;;;0.50;99.90;;;;;;5011942;28;20058;-64
2021/03/18 06:39:04;;;;;;;10.27;5.03;;;0.70;99.90;;;;;;5008573;28;20105;-63
2021/03/18 06:41:44;;;;;;;18.67;6.80;;;0.80;99.90;;;;;;5012803;28;20109;-64
2021/03/18 06:44:30;;;;;;;89.57;36.88;;;0.80;99.90;;;;;;5013190;28;20078;-65
2021/03/18 06:47:10;;;;;;;18.50;6.20;;;1.00;99.90;;;;;;5012948;28;20121;-65
2021/03/18 06:49:37;;;;;;;9.20;3.85;;;1.10;99.90;;;;;;5021517;28;20025;-65
2021/03/18 06:52:08;;;;;;;8.85;3.83;;;1.30;99.90;;;;;;5032486;28;20084;-66
2021/03/18 06:54:39;;;;;;;;;;;1.40;99.90;;;;;;5029970;28;20053;-66
2021/03/18 06:57:06;;;;;;;14.32;5.95;;;1.30;99.90;;;;;;5032480;28;19913;-65
2021/03/18 06:59:38;;;;;;;8.70;4.10;;;1.30;99.90;;;;;;5032275;28;20121;-65
2021/03/18 07:02:15;;;;;;;11.95;4.70;;;1.50;99.90;;;;;;5032398;28;20053;-65
2021/03/18 07:04:43;;;;;;;9.63;4.10;;;1.60;99.90;;;;;;5014740;28;20037;-65
2021/03/18 07:07:12;;;;;;;10.55;3.65;;;1.80;99.90;;;;;;5032354;28;20281;-65
2021/03/18 07:09:39;;;;;;;7.10;3.97;;;1.80;99.90;;;;;;5032119;28;20120;-65
2021/03/18 07:12:18;;;;;;;13.32;4.00;;;1.70;99.90;;;;;;5032067;28;20029;-65
2021/03/18 07:14:49;;;;;;;7.80;4.13;;;2.00;99.90;;;;;;5032100;28;20494;-65
2021/03/18 07:17:37;;;;;;;9.68;4.18;;;2.10;99.90;;;;;;5014736;28;20084;-65
2021/03/18 07:20:21;;;;;;;12.35;4.43;;;2.20;99.90;;;;;;5019767;28;20042;-67
2021/03/18 07:22:53;;;;;;;14.60;5.32;;;2.30;99.90;;;;;;5012285;28;20390;-64
2021/03/18 07:25:23;;;;;;;10.68;4.80;;;2.30;99.90;;;;;;5012058;28;20056;-65
2021/03/18 07:27:53;;;;;;;15.50;4.83;;;2.20;99.90;;;;;;5011829;28;20491;-65
2021/03/18 07:30:35;;;;;;;10.75;3.58;;;2.10;99.90;;;;;;5012418;28;20071;-64
2021/03/18 07:33:03;;;;;;;10.63;3.80;;;2.20;99.90;;;;;;5011175;28;20069;-64
2021/03/18 07:35:30;;;;;;;9.05;3.83;;;2.30;99.90;;;;;;5011367;28;20589;-64
2021/03/18 07:37:56;;;;;;;8.25;3.83;;;2.40;99.90;;;;;;5011931;28;20040;-65
2021/03/18 07:40:27;;;;;;;9.02;3.72;;;2.40;99.90;;;;;;5013686;28;20543;-63
2021/03/18 07:42:55;;;;;;;9.10;4.28;;;2.60;99.90;;;;;;5015554;28;20069;-65
2021/03/18 07:45:25;;;;;;;8.25;3.53;;;2.70;99.90;;;;;;5016071;28;20122;-64
2021/03/18 07:47:51;;;;;;;9.48;3.75;;;2.70;99.90;;;;;;5014475;28;20030;-64
2021/03/18 07:50:24;;;;;;;8.27;4.60;;;2.80;99.90;;;;;;5018384;28;20108;-64
2021/03/18 07:52:51;;;;;;;13.50;5.60;;;2.80;99.90;;;;;;5035441;28;20026;-65
2021/03/18 07:55:20;;;;;;;10.80;4.10;;;3.00;99.90;;;;;;5016521;28;20091;-65
2021/03/18 07:57:52;;;;;;;9.32;3.83;;;2.90;99.90;;;;;;5014754;28;20061;-65
2021/03/18 08:00:24;;;;;;;15.70;3.90;;;3.10;99.90;;;;;;5014966;28;20026;-65
2021/03/18 08:02:52;;;;;;;16.35;6.88;;;3.50;99.90;;;;;;5015981;28;20044;-64
2021/03/18 08:05:38;;;;;;;12.88;6.07;;;3.40;99.90;;;;;;5015516;28;20033;-64
2021/03/18 08:08:06;;;;;;;6.90;4.03;;;3.60;99.90;;;;;;5014316;28;20038;-65
2021/03/18 08:10:31;;;;;;;5.70;3.13;;;3.80;99.90;;;;;;5014393;28;20433;-65
2021/03/18 08:13:00;;;;;;;7.80;3.10;;;3.70;99.90;;;;;;5015793;28;20045;-64
2021/03/18 08:15:45;;;;;;;5.10;2.63;;;3.90;99.90;;;;;;5015811;28;20022;-65
2021/03/18 08:18:14;;;;;;;11.00;3.28;;;3.90;99.90;;;;;;5015779;28;20501;-65
2021/03/18 08:20:40;;;;;;;9.23;3.30;;;4.20;99.90;;;;;;5033376;28;20049;-65
2021/03/18 08:23:27;;;;;;;8.27;3.13;;;4.40;99.90;;;;;;5035221;28;20030;-65
2021/03/18 08:25:57;;;;;;;13.73;3.95;;;4.50;99.90;;;;;;5035206;28;20120;-66
2021/03/18 08:28:42;;;;;;;7.22;3.22;;;4.50;99.90;;;;;;5013066;28;20050;-65
2021/03/18 08:31:17;;;;;;;6.70;2.92;;;4.50;99.90;;;;;;5014286;28;20049;-65
2021/03/18 08:33:52;;;;;;;14.80;3.88;;;4.60;99.90;;;;;;5014137;28;20128;-65
2021/03/18 08:36:19;;;;;;;7.68;2.70;;;4.70;99.90;;;;;;5014153;28;20046;-65
2021/03/18 08:38:49;;;;;;;11.75;4.05;;;4.50;99.90;;;;;;5014386;28;20034;-64
2021/03/18 08:41:30;;;;;;;7.40;3.30;;;4.80;99.90;;;;;;5013281;28;20109;-64
2021/03/18 08:44:22;;;;;;;10.38;4.20;;;5.30;99.90;;;;;;5014149;28;20448;-65
2021/03/18 08:47:04;;;;;;;7.93;2.88;;;5.10;99.90;;;;;;5019115;28;20040;-65
2021/03/18 08:49:45;;;;;;;11.05;3.38;;;5.40;99.90;;;;;;5026517;28;20034;-65
2021/03/18 08:52:18;;;;;;;6.60;2.83;;;5.40;99.90;;;;;;5013554;28;20130;-65
2021/03/18 08:54:49;;;;;;;5.55;2.72;;;5.40;99.90;;;;;;5014822;28;20037;-65
2021/03/18 08:57:20;;;;;;;12.70;2.73;;;5.30;99.90;;;;;;4996921;28;20041;-65
2021/03/18 08:59:56;;;;;;;5.95;3.15;;;4.80;99.90;;;;;;5014939;28;20038;-64
2021/03/18 09:02:34;;;;;;;11.32;3.25;;;5.00;99.90;;;;;;5015053;28;20038;-65
2021/03/18 09:05:24;;;;;;;6.78;2.72;;;5.00;99.90;;;;;;5014362;28;20406;-65
2021/03/18 09:08:04;;;;;;;9.60;3.60;;;4.50;99.90;;;;;;5013817;28;20076;-65
2021/03/18 09:10:36;;;;;;;6.10;2.53;;;4.50;99.90;;;;;;5014833;28;20044;-65
2021/03/18 09:13:14;;;;;;;11.52;3.05;;;5.10;99.90;;;;;;4996834;28;20112;-64
2021/03/18 09:15:45;;;;;;;12.68;2.95;;;5.40;99.90;;;;;;5014705;28;20045;-64
2021/03/18 09:18:26;;;;;;;11.27;3.08;;;5.00;99.90;;;;;;5014544;28;20038;-65
2021/03/18 09:21:00;;;;;;;5.53;2.90;;;5.30;99.90;;;;;;5033835;28;20037;-65
2021/03/18 09:23:31;;;;;;;10.80;3.28;;;5.80;99.90;;;;;;5034216;28;20033;-64
2021/03/18 09:26:04;;;;;;;11.30;3.88;;;5.50;99.90;;;;;;5033944;28;20132;-64
2021/03/18 09:28:39;;;;;;;9.02;3.17;;;5.60;99.90;;;;;;5034240;28;20040;-64
2021/03/18 09:31:06;;;;;;;10.98;3.00;;;6.00;99.90;;;;;;5034166;28;20025;-63
2021/03/18 09:33:41;;;;;;;7.05;2.20;;;6.00;99.90;;;;;;5033819;28;20021;-64
2021/03/18 09:36:17;;;;;;;5.75;2.60;;;5.80;99.90;;;;;;5033773;28;20087;-64
2021/03/18 09:39:14;;;;;;;22.02;7.88;;;6.40;99.90;;;;;;5033650;28;20045;-65
2021/03/18 09:41:48;;;;;;;7.10;3.22;;;6.40;99.90;;;;;;5016088;28;20124;-64
2021/03/18 09:44:20;;;;;;;9.82;2.78;;;6.60;99.80;;;;;;5000687;28;20254;-65
2021/03/18 09:46:50;;;;;;;6.38;2.50;;;6.80;99.00;;;;;;5016304;28;20030;-64
2021/03/18 09:49:16;;;;;;;8.32;3.28;;;6.90;99.50;;;;;;5010127;28;20029;-66
2021/03/18 09:51:44;;;;;;;7.72;2.97;;;6.40;99.90;;;;;;5012712;28;20133;-64
2021/03/18 09:54:13;;;;;;;12.18;4.18;;;7.00;99.90;;;;;;5013889;28;20030;-65
2021/03/18 09:56:41;;;;;;;8.02;3.53;;;6.60;99.90;;;;;;5012395;28;20041;-65
2021/03/18 09:59:11;;;;;;;5.82;3.13;;;6.20;99.90;;;;;;4995624;28;20112;-65
2021/03/18 10:01:37;;;;;;;7.78;3.13;;;6.40;99.90;;;;;;5012674;28;20050;-65
2021/03/18 10:04:08;;;;;;;11.88;3.47;;;6.50;99.90;;;;;;5013135;28;20087;-65
2021/03/18 10:06:37;;;;;;;7.70;3.05;;;6.70;99.90;;;;;;5012464;28;20030;-65
2021/03/18 10:09:32;;;;;;;9.27;3.63;;;7.50;99.50;;;;;;4996175;28;20068;-65
2021/03/18 10:12:14;;;;;;;6.35;3.15;;;6.70;99.50;;;;;;5013608;28;20490;-65
2021/03/18 10:14:45;;;;;;;7.88;3.58;;;7.20;99.90;;;;;;5012182;28;20387;-64
2021/03/18 10:17:24;;;;;;;11.83;4.07;;;7.90;98.80;;;;;;5013538;28;20022;-65
2021/03/18 10:20:11;;;;;;;11.70;3.58;;;8.00;98.80;;;;;;5024168;28;20033;-65
2021/03/18 10:22:41;;;;;;;5.32;3.25;;;7.20;98.80;;;;;;5033261;28;20037;-65
2021/03/18 10:25:27;;;;;;;8.63;3.20;;;7.50;99.40;;;;;;5032991;28;20060;-65
2021/03/18 10:28:00;;;;;;;10.38;3.63;;;7.30;99.70;;;;;;5032880;28;20033;-64
2021/03/18 10:30:27;;;;;;;9.88;3.72;;;7.60;99.90;;;;;;5032866;28;20041;-66
2021/03/18 10:33:16;;;;;;;12.60;3.40;;;7.80;98.00;;;;;;5033053;28;20160;-66
2021/03/18 10:35:46;;;;;;;10.27;3.80;;;8.00;98.80;;;;;;4998815;28;20135;-65
2021/03/18 10:38:19;;;;;;;7.60;3.80;;;7.90;98.80;;;;;;4998933;28;20045;-66
2021/03/18 10:40:47;;;;;;;8.38;3.90;;;7.70;98.80;;;;;;5015820;28;20030;-66
2021/03/18 10:43:30;;;;;;;13.20;3.95;;;8.40;98.50;;;;;;5015222;28;20040;-65
2021/03/18 10:46:04;;;;;;;12.98;3.83;;;8.80;97.40;;;;;;5032660;28;20482;-66
2021/03/18 10:48:36;;;;;;;8.02;3.63;;;9.10;97.70;;;;;;5023771;28;20042;-66
2021/03/18 10:51:09;;;;;;;8.82;4.05;;;9.70;95.90;;;;;;5032252;28;20482;-65
2021/03/18 10:53:38;;;;;;;11.90;4.53;;;8.70;96.00;;;;;;5032793;28;20022;-65
2021/03/18 10:56:09;;;;;;;14.23;6.15;;;9.10;96.10;;;;;;5014574;28;20057;-65
2021/03/18 10:58:35;;;;;;;11.55;5.20;;;8.90;94.90;;;;;;5015289;28;20445;-65
2021/03/18 11:01:06;;;;;;;8.52;3.60;;;9.70;97.40;;;;;;5014494;28;20041;-65
2021/03/18 11:03:35;;;;;;;7.22;4.18;;;9.60;93.40;;;;;;5032584;28;20037;-65
2021/03/18 11:06:16;;;;;;;10.30;3.15;;;9.90;92.40;;;;;;4998445;28;20171;-66
2021/03/18 11:08:47;;;;;;;6.35;3.65;;;9.90;90.80;;;;;;5032577;28;20034;-66
2021/03/18 11:11:23;;;;;;;12.35;3.90;;;9.80;90.80;;;;;;5015174;28;20037;-65
2021/03/18 11:13:50;;;;;;;5.65;3.00;;;9.90;92.40;;;;;;5014644;28;20034;-65
2021/03/18 11:16:24;;;;;;;7.70;3.03;;;10.40;90.70;;;;;;5031360;28;20041;-65
2021/03/18 11:18:58;;;;;;;8.80;4.00;;;11.10;83.20;;;;;;5011724;28;20111;-65
2021/03/18 11:21:29;;;;;;;6.13;2.22;;;10.50;81.10;;;;;;5012214;28;20069;-65
2021/03/18 11:24:10;;;;;;;4.60;2.53;;;11.00;81.30;;;;;;4994642;28;20059;-64
2021/03/18 11:26:42;;;;;;;8.77;2.40;;;11.70;73.20;;;;;;4986521;28;20029;-64
2021/03/18 11:29:14;;;;;;;3.38;2.00;;;12.00;67.10;;;;;;5001944;28;20711;-65
2021/03/18 11:31:50;;;;;;;7.60;2.65;;;11.30;68.30;;;;;;5012040;28;20041;-65
2021/03/18 11:34:25;;;;;;;8.25;2.60;;;11.70;67.60;;;;;;4986071;28;20038;-65
2021/03/18 11:36:58;;;;;;;6.15;2.40;;;11.30;68.40;;;;;;5000600;28;20065;-67
2021/03/18 11:39:26;;;;;;;9.90;4.25;;;10.80;70.10;;;;;;5012178;28;20041;-66
2021/03/18 11:41:56;;;;;;;7.07;2.60;;;11.10;72.50;;;;;;5011840;28;20513;-66
2021/03/18 11:44:27;;;;;;;8.63;2.58;;;11.40;72.80;;;;;;5012490;28;20121;-66
2021/03/18 11:46:58;;;;;;;2.50;1.58;;;12.00;65.60;;;;;;5012222;28;20113;-66
2021/03/18 11:49:24;;;;;;;5.13;1.83;;;12.20;60.80;;;;;;5019666;28;20030;-65
2021/03/18 11:51:50;;;;;;;4.80;2.20;;;12.60;62.80;;;;;;5031750;28;20470;-66
2021/03/18 11:54:16;;;;;;;3.42;1.77;;;12.80;63.70;;;;;;5031859;28;20033;-66
2021/03/18 11:56:43;;;;;;;3.83;1.67;;;13.40;59.10;;;;;;5031705;28;20032;-68
2021/03/18 11:59:08;;;;;;;5.25;2.08;;;14.00;55.30;;;;;;5031503;28;20411;-67
2021/03/18 12:01:35;;;;;;;5.82;2.00;;;14.90;53.00;;;;;;5014277;28;20036;-64
2021/03/18 12:04:00;;;;;;;6.70;2.63;;;15.50;53.10;;;;;;5031499;28;20030;-65
2021/03/18 12:06:26;;;;;;;3.63;1.80;;;15.20;54.50;;;;;;5031601;28;20367;-66
2021/03/18 12:08:52;;;;;;;3.88;1.42;;;17.40;49.20;;;;;;5031792;28;20040;-64
2021/03/18 12:11:18;;;;;;;3.72;1.55;;;16.80;45.00;;;;;;5019646;28;20029;-65
2021/03/18 12:13:43;;;;;;;4.30;1.55;;;16.00;47.00;;;;;;5012010;28;20030;-65
2021/03/18 12:16:09;;;;;;;4.18;1.75;;;15.40;48.60;;;;;;4999511;28;20026;-64
2021/03/18 12:18:35;;;;;;;4.50;1.92;;;15.00;49.00;;;;;;5000300;28;20040;-65
2021/03/18 12:21:01;;;;;;;4.47;2.10;;;16.30;47.60;;;;;;5019457;28;20041;-65
2021/03/18 12:23:27;;;;;;;4.50;2.20;;;17.60;44.80;;;;;;5011888;28;20088;-65
2021/03/18 12:26:03;;;;;;;5.50;1.60;;;15.80;45.40;;;;;;5010099;28;20041;-65
2021/03/18 12:28:28;;;;;;;2.65;1.60;;;14.60;48.90;;;;;;5014328;28;20112;-64
2021/03/18 12:30:55;;;;;;;4.82;2.08;;;14.00;50.00;;;;;;5014877;28;20105;-65
2021/03/18 12:33:21;;;;;;;3.92;2.20;;;13.40;52.00;;;;;;5014967;28;20080;-65
2021/03/18 12:35:52;;;;;;;5.28;2.00;;;12.20;53.00;;;;;;4996705;28;20079;-64
2021/03/18 12:38:21;;;;;;;4.13;2.20;;;12.10;53.10;;;;;;5015376;28;20049;-65
2021/03/18 12:40:49;;;;;;;7.15;2.42;;;11.30;59.00;;;;;;5015305;28;20101;-66
2021/03/18 12:43:15;;;;;;;6.80;1.95;;;14.00;54.60;;;;;;5014797;28;20041;-66
2021/03/18 12:45:43;;;;;;;5.90;2.40;;;14.90;49.50;;;;;;5014923;28;20045;-65
2021/03/18 12:48:09;;;;;;;4.28;2.10;;;14.50;49.70;;;;;;5022225;28;20447;-66
2021/03/18 12:50:36;;;;;;;5.45;2.00;;;12.50;53.10;;;;;;5017619;28;20062;-66
2021/03/18 12:53:05;;;;;;;6.00;2.38;;;13.00;54.40;;;;;;5014976;28;20440;-66
2021/03/18 12:55:31;;;;;;;5.53;2.45;;;12.60;55.60;;;;;;5014280;28;20084;-65
2021/03/18 12:57:58;;;;;;;6.13;2.28;;;11.90;57.00;;;;;;4996948;28;20030;-66
2021/03/18 13:00:34;;;;;;;4.65;2.28;;;11.40;59.50;;;;;;5014889;28;20065;-65
2021/03/18 13:03:08;;;;;;;5.10;2.33;;;10.70;59.70;;;;;;4966126;28;20502;-65
2021/03/18 13:05:34;;;;;;;5.47;2.17;;;10.40;63.60;;;;;;4997242;28;20042;-65
2021/03/18 13:08:00;;;;;;;5.07;2.65;;;9.90;66.30;;;;;;5014870;28;20025;-65
2021/03/18 13:10:29;;;;;;;7.93;2.45;;;9.70;68.60;;;;;;5014900;28;20475;-65
2021/03/18 13:12:55;;;;;;;6.93;2.58;;;9.50;73.10;;;;;;5015158;28;20429;-67
2021/03/18 13:15:22;;;;;;;3.67;2.35;;;9.50;77.00;;;;;;5014687;28;20056;-66